sensor_id;sensor_type;location;lat;lon;timestamp;P1;durP1;ratioP1;P2;durP2;ratioP2
3280;SDS011;1652;51.31805600;6.20194400;2024-03-25T00:00:10;16.00;;;4.00;;
3280;SDS011;1652;51.31805600;6.20194400;2024-03-25T00:02:37;13.00;;;3.70;;
3280;SDS011;1652;51.31805600;6.20194400;2024-03-25T00:05:04;14.33;;;4.30;;
3280;SDS011;1652;51.31805600;6.20194400;2024-03-25T00:07:32;20.70;;;4.47;;
3280;SDS011;1652;51.31805600;6.20194400;2024-03-25T00:09:58;14.63;;;3.50;;
3280;SDS011;1652;51.31805600;6.20194400;2024-03-25T00:12:27;11.17;;;3.23;;
3280;SDS011;1652;51.31805600;6.20194400;2024-03-25T00:14:53;10.70;;;3.50;;
3280;SDS011;1652;51.31805600;6.20194400;2024-03-25T00:17:19;20.07;;;5.20;;
3280;SDS011;1652;51.31805600;6.20194400;2024-03-25T00:19:47;10.97;;;3.43;;
3280;SDS011;1652;51.31805600;6.20194400;2024-03-25T00:22:16;16.10;;;5.07;;
3280;SDS011;1652;51.31805600;6.20194400;2024-03-25T00:24:43;17.67;;;4.47;;
3280;SDS011;1652;51.31805600;6.20194400;2024-03-25T00:27:08;26.77;;;4.47;;
3280;SDS011;1652;51.31805600;6.20194400;2024-03-25T00:29:34;26.73;;;4.33;;
3280;SDS011;1652;51.31805600;6.20194400;2024-03-25T00:32:00;17.57;;;4.10;;
3280;SDS011;1652;51.31805600;6.20194400;2024-03-25T00:34:26;15.50;;;5.13;;
3280;SDS011;1652;51.31805600;6.20194400;2024-03-25T00:36:51;16.83;;;6.40;;
3280;SDS011;1652;51.31805600;6.20194400;2024-03-25T00:39:18;19.83;;;3.77;;
3280;SDS011;1652;51.31805600;6.20194400;2024-03-25T00:41:44;12.57;;;4.47;;
3280;SDS011;1652;51.31805600;6.20194400;2024-03-25T00:44:10;13.23;;;4.43;;
3280;SDS011;1652;51.31805600;6.20194400;2024-03-25T00:46:36;15.03;;;4.07;;
3280;SDS011;1652;51.31805600;6.20194400;2024-03-25T00:49:02;16.77;;;4.03;;
3280;SDS011;1652;51.31805600;6.20194400;2024-03-25T00:51:28;17.47;;;4.53;;
3280;SDS011;1652;51.31805600;6.20194400;2024-03-25T00:53:53;20.50;;;5.30;;
3280;SDS011;1652;51.31805600;6.20194400;2024-03-25T00:56:19;24.17;;;5.30;;
3280;SDS011;1652;51.31805600;6.20194400;2024-03-25T00:58:45;22.10;;;6.27;;
3280;SDS011;1652;51.31805600;6.20194400;2024-03-25T01:01:11;21.97;;;5.30;;
3280;SDS011;1652;51.31805600;6.20194400;2024-03-25T01:03:37;24.47;;;4.60;;
3280;SDS011;1652;51.31805600;6.20194400;2024-03-25T01:06:03;38.57;;;5.30;;
3280;SDS011;1652;51.31805600;6.20194400;2024-03-25T01:08:29;21.47;;;5.40;;
3280;SDS011;1652;51.31805600;6.20194400;2024-03-25T01:10:55;26.50;;;6.70;;
3280;SDS011;1652;51.31805600;6.20194400;2024-03-25T01:13:21;22.13;;;5.00;;
3280;SDS011;1652;51.31805600;6.20194400;2024-03-25T01:15:47;15.93;;;4.73;;
3280;SDS011;1652;51.31805600;6.20194400;2024-03-25T01:18:13;17.27;;;5.10;;
3280;SDS011;1652;51.31805600;6.20194400;2024-03-25T01:20:38;18.63;;;4.80;;
3280;SDS011;1652;51.31805600;6.20194400;2024-03-25T01:23:04;22.83;;;5.50;;
3280;SDS011;1652;51.31805600;6.20194400;2024-03-25T01:25:30;17.93;;;4.20;;
3280;SDS011;1652;51.31805600;6.20194400;2024-03-25T01:27:56;15.37;;;5.23;;
3280;SDS011;1652;51.31805600;6.20194400;2024-03-25T01:30:22;15.27;;;5.33;;
3280;SDS011;1652;51.31805600;6.20194400;2024-03-25T01:32:47;17.30;;;5.67;;
3280;SDS011;1652;51.31805600;6.20194400;2024-03-25T01:35:15;21.77;;;5.13;;
3280;SDS011;1652;51.31805600;6.20194400;2024-03-25T01:37:41;19.80;;;5.50;;
3280;SDS011;1652;51.31805600;6.20194400;2024-03-25T01:40:07;19.03;;;4.80;;
3280;SDS011;1652;51.31805600;6.20194400;2024-03-25T01:42:36;16.73;;;5.40;;
3280;SDS011;1652;51.31805600;6.20194400;2024-03-25T01:45:02;18.07;;;5.87;;
3280;SDS011;1652;51.31805600;6.20194400;2024-03-25T01:47:29;16.33;;;5.53;;
3280;SDS011;1652;51.31805600;6.20194400;2024-03-25T01:49:58;15.67;;;6.30;;
3280;SDS011;1652;51.31805600;6.20194400;2024-03-25T01:52:25;11.00;;;5.30;;
3280;SDS011;1652;51.31805600;6.20194400;2024-03-25T01:54:52;11.13;;;4.73;;
3280;SDS011;1652;51.31805600;6.20194400;2024-03-25T01:57:18;19.97;;;6.17;;
3280;SDS011;1652;51.31805600;6.20194400;2024-03-25T01:59:46;19.93;;;5.00;;
3280;SDS011;1652;51.31805600;6.20194400;2024-03-25T02:02:15;11.17;;;5.47;;
3280;SDS011;1652;51.31805600;6.20194400;2024-03-25T02:04:41;17.60;;;5.50;;
3280;SDS011;1652;51.31805600;6.20194400;2024-03-25T02:07:08;14.53;;;6.07;;
3280;SDS011;1652;51.31805600;6.20194400;2024-03-25T02:09:35;28.23;;;6.90;;
3280;SDS011;1652;51.31805600;6.20194400;2024-03-25T02:12:02;9.63;;;5.00;;
3280;SDS011;1652;51.31805600;6.20194400;2024-03-25T02:14:28;17.93;;;5.90;;
3280;SDS011;1652;51.31805600;6.20194400;2024-03-25T02:16:54;14.93;;;5.80;;
3280;SDS011;1652;51.31805600;6.20194400;2024-03-25T02:19:21;21.67;;;6.47;;
3280;SDS011;1652;51.31805600;6.20194400;2024-03-25T02:21:48;11.77;;;5.53;;
3280;SDS011;1652;51.31805600;6.20194400;2024-03-25T02:24:17;16.60;;;5.97;;
3280;SDS011;1652;51.31805600;6.20194400;2024-03-25T02:26:45;10.63;;;5.70;;
3280;SDS011;1652;51.31805600;6.20194400;2024-03-25T02:29:11;23.70;;;5.97;;
3280;SDS011;1652;51.31805600;6.20194400;2024-03-25T02:31:37;25.47;;;7.47;;
3280;SDS011;1652;51.31805600;6.20194400;2024-03-25T02:34:03;17.17;;;5.53;;
3280;SDS011;1652;51.31805600;6.20194400;2024-03-25T02:36:29;23.83;;;5.80;;
3280;SDS011;1652;51.31805600;6.20194400;2024-03-25T02:38:54;23.67;;;6.33;;
3280;SDS011;1652;51.31805600;6.20194400;2024-03-25T02:41:20;15.63;;;7.03;;
3280;SDS011;1652;51.31805600;6.20194400;2024-03-25T02:43:49;24.27;;;5.87;;
3280;SDS011;1652;51.31805600;6.20194400;2024-03-25T02:46:16;23.10;;;6.03;;
3280;SDS011;1652;51.31805600;6.20194400;2024-03-25T02:48:42;18.67;;;7.40;;
3280;SDS011;1652;51.31805600;6.20194400;2024-03-25T02:51:08;17.53;;;5.93;;
3280;SDS011;1652;51.31805600;6.20194400;2024-03-25T02:53:33;23.10;;;6.73;;
3280;SDS011;1652;51.31805600;6.20194400;2024-03-25T02:55:59;15.93;;;5.80;;
3280;SDS011;1652;51.31805600;6.20194400;2024-03-25T02:58:25;11.20;;;4.60;;
3280;SDS011;1652;51.31805600;6.20194400;2024-03-25T03:00:51;21.50;;;6.33;;
3280;SDS011;1652;51.31805600;6.20194400;2024-03-25T03:03:16;16.03;;;5.67;;
3280;SDS011;1652;51.31805600;6.20194400;2024-03-25T03:05:42;14.17;;;6.53;;
3280;SDS011;1652;51.31805600;6.20194400;2024-03-25T03:08:08;25.07;;;6.27;;
3280;SDS011;1652;51.31805600;6.20194400;2024-03-25T03:10:34;11.20;;;4.77;;
3280;SDS011;1652;51.31805600;6.20194400;2024-03-25T03:13:00;24.30;;;5.80;;
3280;SDS011;1652;51.31805600;6.20194400;2024-03-25T03:15:25;23.17;;;6.17;;
3280;SDS011;1652;51.31805600;6.20194400;2024-03-25T03:17:51;14.83;;;5.27;;
3280;SDS011;1652;51.31805600;6.20194400;2024-03-25T03:20:17;15.27;;;5.67;;
3280;SDS011;1652;51.31805600;6.20194400;2024-03-25T03:22:43;17.63;;;5.70;;
3280;SDS011;1652;51.31805600;6.20194400;2024-03-25T03:25:08;21.37;;;6.80;;
3280;SDS011;1652;51.31805600;6.20194400;2024-03-25T03:27:34;20.17;;;5.43;;
3280;SDS011;1652;51.31805600;6.20194400;2024-03-25T03:30:00;14.43;;;5.50;;
3280;SDS011;1652;51.31805600;6.20194400;2024-03-25T03:32:27;9.83;;;5.77;;
3280;SDS011;1652;51.31805600;6.20194400;2024-03-25T03:34:52;11.60;;;4.70;;
3280;SDS011;1652;51.31805600;6.20194400;2024-03-25T03:37:18;11.30;;;5.53;;
3280;SDS011;1652;51.31805600;6.20194400;2024-03-25T03:39:44;26.40;;;5.67;;
3280;SDS011;1652;51.31805600;6.20194400;2024-03-25T03:42:10;20.93;;;6.20;;
3280;SDS011;1652;51.31805600;6.20194400;2024-03-25T03:44:35;14.07;;;5.90;;
3280;SDS011;1652;51.31805600;6.20194400;2024-03-25T03:47:01;21.37;;;5.80;;
3280;SDS011;1652;51.31805600;6.20194400;2024-03-25T03:49:27;17.70;;;6.10;;
3280;SDS011;1652;51.31805600;6.20194400;2024-03-25T03:51:53;16.40;;;6.20;;
3280;SDS011;1652;51.31805600;6.20194400;2024-03-25T03:54:18;26.27;;;6.57;;
3280;SDS011;1652;51.31805600;6.20194400;2024-03-25T03:56:44;22.03;;;6.10;;
3280;SDS011;1652;51.31805600;6.20194400;2024-03-25T03:59:10;16.27;;;6.10;;
3280;SDS011;1652;51.31805600;6.20194400;2024-03-25T04:01:36;26.20;;;6.87;;
3280;SDS011;1652;51.31805600;6.20194400;2024-03-25T04:04:01;17.80;;;6.60;;
3280;SDS011;1652;51.31805600;6.20194400;2024-03-25T04:06:27;15.27;;;6.53;;
3280;SDS011;1652;51.31805600;6.20194400;2024-03-25T04:08:53;18.53;;;5.67;;
3280;SDS011;1652;51.31805600;6.20194400;2024-03-25T04:11:19;14.10;;;6.97;;
3280;SDS011;1652;51.31805600;6.20194400;2024-03-25T04:13:46;22.60;;;7.77;;
3280;SDS011;1652;51.31805600;6.20194400;2024-03-25T04:16:12;11.20;;;6.00;;
3280;SDS011;1652;51.31805600;6.20194400;2024-03-25T04:18:38;24.50;;;6.63;;
3280;SDS011;1652;51.31805600;6.20194400;2024-03-25T04:21:12;15.03;;;7.33;;
3280;SDS011;1652;51.31805600;6.20194400;2024-03-25T04:23:38;14.00;;;6.07;;
3280;SDS011;1652;51.31805600;6.20194400;2024-03-25T04:26:04;35.40;;;9.30;;
3280;SDS011;1652;51.31805600;6.20194400;2024-03-25T04:28:32;25.03;;;7.33;;
3280;SDS011;1652;51.31805600;6.20194400;2024-03-25T04:30:58;15.07;;;7.03;;
3280;SDS011;1652;51.31805600;6.20194400;2024-03-25T04:33:24;21.13;;;7.00;;
3280;SDS011;1652;51.31805600;6.20194400;2024-03-25T04:35:50;10.80;;;6.40;;
3280;SDS011;1652;51.31805600;6.20194400;2024-03-25T04:38:16;20.80;;;6.60;;
3280;SDS011;1652;51.31805600;6.20194400;2024-03-25T04:40:42;17.47;;;6.70;;
3280;SDS011;1652;51.31805600;6.20194400;2024-03-25T04:43:09;20.83;;;7.10;;
3280;SDS011;1652;51.31805600;6.20194400;2024-03-25T04:45:35;13.50;;;6.30;;
3280;SDS011;1652;51.31805600;6.20194400;2024-03-25T04:48:00;17.87;;;6.90;;
3280;SDS011;1652;51.31805600;6.20194400;2024-03-25T04:50:27;14.40;;;6.30;;
3280;SDS011;1652;51.31805600;6.20194400;2024-03-25T04:52:53;12.57;;;5.83;;
3280;SDS011;1652;51.31805600;6.20194400;2024-03-25T04:55:19;13.17;;;7.07;;
3280;SDS011;1652;51.31805600;6.20194400;2024-03-25T04:57:45;15.00;;;6.83;;
3280;SDS011;1652;51.31805600;6.20194400;2024-03-25T05:00:11;22.27;;;7.00;;
3280;SDS011;1652;51.31805600;6.20194400;2024-03-25T05:02:37;23.93;;;7.30;;
3280;SDS011;1652;51.31805600;6.20194400;2024-03-25T05:05:04;14.53;;;7.27;;
3280;SDS011;1652;51.31805600;6.20194400;2024-03-25T05:07:30;20.17;;;7.10;;
3280;SDS011;1652;51.31805600;6.20194400;2024-03-25T05:09:56;15.33;;;6.60;;
3280;SDS011;1652;51.31805600;6.20194400;2024-03-25T05:12:22;17.33;;;5.97;;
3280;SDS011;1652;51.31805600;6.20194400;2024-03-25T05:14:47;13.13;;;6.43;;
3280;SDS011;1652;51.31805600;6.20194400;2024-03-25T05:17:13;24.30;;;6.97;;
3280;SDS011;1652;51.31805600;6.20194400;2024-03-25T05:19:39;22.87;;;8.20;;
3280;SDS011;1652;51.31805600;6.20194400;2024-03-25T05:22:05;12.40;;;6.53;;
3280;SDS011;1652;51.31805600;6.20194400;2024-03-25T05:24:30;14.87;;;6.53;;
3280;SDS011;1652;51.31805600;6.20194400;2024-03-25T05:26:56;19.30;;;7.23;;
3280;SDS011;1652;51.31805600;6.20194400;2024-03-25T05:29:22;21.03;;;7.10;;
3280;SDS011;1652;51.31805600;6.20194400;2024-03-25T05:34:24;22.33;;;7.23;;
3280;SDS011;1652;51.31805600;6.20194400;2024-03-25T05:36:50;17.60;;;7.13;;
3280;SDS011;1652;51.31805600;6.20194400;2024-03-25T05:39:16;16.73;;;7.30;;
3280;SDS011;1652;51.31805600;6.20194400;2024-03-25T05:41:42;24.57;;;7.57;;
3280;SDS011;1652;51.31805600;6.20194400;2024-03-25T05:44:08;18.20;;;7.03;;
3280;SDS011;1652;51.31805600;6.20194400;2024-03-25T05:46:34;21.67;;;7.50;;
3280;SDS011;1652;51.31805600;6.20194400;2024-03-25T05:49:03;28.83;;;7.67;;
3280;SDS011;1652;51.31805600;6.20194400;2024-03-25T05:51:29;14.83;;;7.33;;
3280;SDS011;1652;51.31805600;6.20194400;2024-03-25T05:53:55;22.63;;;6.80;;
3280;SDS011;1652;51.31805600;6.20194400;2024-03-25T05:56:21;18.47;;;7.93;;
3280;SDS011;1652;51.31805600;6.20194400;2024-03-25T05:58:47;23.83;;;7.70;;
3280;SDS011;1652;51.31805600;6.20194400;2024-03-25T06:01:13;27.13;;;8.20;;
3280;SDS011;1652;51.31805600;6.20194400;2024-03-25T06:03:39;17.47;;;7.20;;
3280;SDS011;1652;51.31805600;6.20194400;2024-03-25T06:06:05;24.73;;;8.27;;
3280;SDS011;1652;51.31805600;6.20194400;2024-03-25T06:08:30;21.27;;;7.77;;
3280;SDS011;1652;51.31805600;6.20194400;2024-03-25T06:11:00;13.53;;;7.83;;
3280;SDS011;1652;51.31805600;6.20194400;2024-03-25T06:13:26;29.53;;;8.10;;
3280;SDS011;1652;51.31805600;6.20194400;2024-03-25T06:15:53;20.63;;;7.63;;
3280;SDS011;1652;51.31805600;6.20194400;2024-03-25T06:18:19;15.87;;;6.77;;
3280;SDS011;1652;51.31805600;6.20194400;2024-03-25T06:20:44;15.70;;;7.20;;
3280;SDS011;1652;51.31805600;6.20194400;2024-03-25T06:23:10;17.53;;;7.77;;
3280;SDS011;1652;51.31805600;6.20194400;2024-03-25T06:25:46;12.83;;;6.00;;
3280;SDS011;1652;51.31805600;6.20194400;2024-03-25T06:28:12;11.17;;;5.93;;
3280;SDS011;1652;51.31805600;6.20194400;2024-03-25T06:30:38;15.13;;;5.53;;
3280;SDS011;1652;51.31805600;6.20194400;2024-03-25T06:33:22;13.13;;;5.10;;
3280;SDS011;1652;51.31805600;6.20194400;2024-03-25T06:36:06;11.43;;;5.00;;
3280;SDS011;1652;51.31805600;6.20194400;2024-03-25T06:38:32;9.50;;;5.23;;
3280;SDS011;1652;51.31805600;6.20194400;2024-03-25T06:40:58;7.80;;;4.90;;
3280;SDS011;1652;51.31805600;6.20194400;2024-03-25T06:43:24;11.63;;;5.60;;
3280;SDS011;1652;51.31805600;6.20194400;2024-03-25T06:45:50;9.53;;;5.53;;
3280;SDS011;1652;51.31805600;6.20194400;2024-03-25T06:48:16;14.03;;;5.87;;
3280;SDS011;1652;51.31805600;6.20194400;2024-03-25T06:50:41;10.10;;;4.60;;
3280;SDS011;1652;51.31805600;6.20194400;2024-03-25T06:53:16;8.73;;;5.13;;
3280;SDS011;1652;51.31805600;6.20194400;2024-03-25T06:55:42;8.50;;;4.50;;
3280;SDS011;1652;51.31805600;6.20194400;2024-03-25T06:58:17;8.27;;;4.60;;
3280;SDS011;1652;51.31805600;6.20194400;2024-03-25T07:00:43;12.23;;;4.90;;
3280;SDS011;1652;51.31805600;6.20194400;2024-03-25T07:03:09;10.27;;;5.60;;
3280;SDS011;1652;51.31805600;6.20194400;2024-03-25T07:05:34;7.50;;;4.70;;
3280;SDS011;1652;51.31805600;6.20194400;2024-03-25T07:08:00;6.77;;;4.53;;
3280;SDS011;1652;51.31805600;6.20194400;2024-03-25T07:10:26;13.70;;;5.13;;
3280;SDS011;1652;51.31805600;6.20194400;2024-03-25T07:12:52;9.07;;;5.00;;
3280;SDS011;1652;51.31805600;6.20194400;2024-03-25T07:15:17;8.90;;;5.03;;
3280;SDS011;1652;51.31805600;6.20194400;2024-03-25T07:17:43;7.13;;;5.17;;
3280;SDS011;1652;51.31805600;6.20194400;2024-03-25T07:20:09;13.33;;;5.07;;
3280;SDS011;1652;51.31805600;6.20194400;2024-03-25T07:22:36;19.93;;;5.40;;
3280;SDS011;1652;51.31805600;6.20194400;2024-03-25T07:25:01;13.43;;;5.93;;
3280;SDS011;1652;51.31805600;6.20194400;2024-03-25T07:27:27;10.13;;;5.80;;
3280;SDS011;1652;51.31805600;6.20194400;2024-03-25T07:29:53;9.63;;;5.83;;
3280;SDS011;1652;51.31805600;6.20194400;2024-03-25T07:32:19;7.13;;;5.30;;
3280;SDS011;1652;51.31805600;6.20194400;2024-03-25T07:34:45;11.73;;;5.93;;
3280;SDS011;1652;51.31805600;6.20194400;2024-03-25T07:37:11;13.53;;;6.90;;
3280;SDS011;1652;51.31805600;6.20194400;2024-03-25T07:39:37;13.20;;;6.53;;
3280;SDS011;1652;51.31805600;6.20194400;2024-03-25T07:42:02;12.30;;;6.93;;
3280;SDS011;1652;51.31805600;6.20194400;2024-03-25T07:44:28;9.90;;;7.10;;
3280;SDS011;1652;51.31805600;6.20194400;2024-03-25T07:46:54;15.20;;;8.80;;
3280;SDS011;1652;51.31805600;6.20194400;2024-03-25T07:49:20;14.30;;;8.30;;
3280;SDS011;1652;51.31805600;6.20194400;2024-03-25T07:51:46;17.23;;;9.13;;
3280;SDS011;1652;51.31805600;6.20194400;2024-03-25T07:54:12;12.90;;;8.13;;
3280;SDS011;1652;51.31805600;6.20194400;2024-03-25T07:56:41;13.20;;;8.53;;
3280;SDS011;1652;51.31805600;6.20194400;2024-03-25T07:59:09;18.80;;;8.70;;
3280;SDS011;1652;51.31805600;6.20194400;2024-03-25T08:01:34;14.37;;;8.27;;
3280;SDS011;1652;51.31805600;6.20194400;2024-03-25T08:04:00;17.90;;;7.90;;
3280;SDS011;1652;51.31805600;6.20194400;2024-03-25T08:06:27;15.87;;;7.87;;
3280;SDS011;1652;51.31805600;6.20194400;2024-03-25T08:08:53;13.53;;;6.80;;
3280;SDS011;1652;51.31805600;6.20194400;2024-03-25T08:11:19;16.77;;;6.53;;
3280;SDS011;1652;51.31805600;6.20194400;2024-03-25T08:13:46;14.70;;;6.97;;
3280;SDS011;1652;51.31805600;6.20194400;2024-03-25T08:16:11;12.80;;;7.37;;
3280;SDS011;1652;51.31805600;6.20194400;2024-03-25T08:18:37;13.70;;;6.33;;
3280;SDS011;1652;51.31805600;6.20194400;2024-03-25T08:21:03;10.67;;;5.67;;
3280;SDS011;1652;51.31805600;6.20194400;2024-03-25T08:23:29;14.30;;;6.80;;
3280;SDS011;1652;51.31805600;6.20194400;2024-03-25T08:25:55;19.33;;;6.40;;
3280;SDS011;1652;51.31805600;6.20194400;2024-03-25T08:28:20;12.70;;;6.23;;
3280;SDS011;1652;51.31805600;6.20194400;2024-03-25T08:30:46;6.50;;;4.73;;
3280;SDS011;1652;51.31805600;6.20194400;2024-03-25T08:33:12;12.13;;;5.27;;
3280;SDS011;1652;51.31805600;6.20194400;2024-03-25T08:35:37;19.27;;;6.50;;
3280;SDS011;1652;51.31805600;6.20194400;2024-03-25T08:38:03;15.27;;;4.80;;
3280;SDS011;1652;51.31805600;6.20194400;2024-03-25T08:40:29;12.10;;;4.73;;
3280;SDS011;1652;51.31805600;6.20194400;2024-03-25T08:42:55;10.20;;;4.20;;
3280;SDS011;1652;51.31805600;6.20194400;2024-03-25T08:45:21;15.60;;;4.37;;
3280;SDS011;1652;51.31805600;6.20194400;2024-03-25T08:47:46;12.70;;;4.60;;
3280;SDS011;1652;51.31805600;6.20194400;2024-03-25T08:50:12;12.37;;;6.20;;
3280;SDS011;1652;51.31805600;6.20194400;2024-03-25T08:52:38;19.07;;;6.67;;
3280;SDS011;1652;51.31805600;6.20194400;2024-03-25T08:55:05;13.23;;;6.17;;
3280;SDS011;1652;51.31805600;6.20194400;2024-03-25T08:57:31;17.00;;;7.17;;
3280;SDS011;1652;51.31805600;6.20194400;2024-03-25T08:59:57;13.03;;;6.00;;
3280;SDS011;1652;51.31805600;6.20194400;2024-03-25T09:02:23;15.03;;;6.10;;
3280;SDS011;1652;51.31805600;6.20194400;2024-03-25T09:04:48;17.67;;;7.20;;
3280;SDS011;1652;51.31805600;6.20194400;2024-03-25T09:07:14;14.10;;;7.10;;
3280;SDS011;1652;51.31805600;6.20194400;2024-03-25T09:09:40;23.43;;;7.50;;
3280;SDS011;1652;51.31805600;6.20194400;2024-03-25T09:12:24;23.80;;;7.50;;
3280;SDS011;1652;51.31805600;6.20194400;2024-03-25T09:14:50;20.23;;;8.30;;
3280;SDS011;1652;51.31805600;6.20194400;2024-03-25T09:17:19;21.80;;;8.90;;
3280;SDS011;1652;51.31805600;6.20194400;2024-03-25T09:19:45;22.07;;;9.50;;
3280;SDS011;1652;51.31805600;6.20194400;2024-03-25T09:22:10;24.27;;;9.30;;
3280;SDS011;1652;51.31805600;6.20194400;2024-03-25T09:24:36;17.10;;;9.47;;
3280;SDS011;1652;51.31805600;6.20194400;2024-03-25T09:27:02;15.93;;;10.07;;
3280;SDS011;1652;51.31805600;6.20194400;2024-03-25T09:29:30;18.93;;;9.70;;
3280;SDS011;1652;51.31805600;6.20194400;2024-03-25T09:31:56;16.30;;;9.53;;
3280;SDS011;1652;51.31805600;6.20194400;2024-03-25T09:34:22;33.57;;;9.73;;
3280;SDS011;1652;51.31805600;6.20194400;2024-03-25T09:36:48;18.97;;;9.80;;
3280;SDS011;1652;51.31805600;6.20194400;2024-03-25T09:39:14;22.00;;;8.47;;
3280;SDS011;1652;51.31805600;6.20194400;2024-03-25T09:41:41;15.33;;;8.53;;
3280;SDS011;1652;51.31805600;6.20194400;2024-03-25T09:44:08;16.63;;;8.57;;
3280;SDS011;1652;51.31805600;6.20194400;2024-03-25T09:46:35;20.67;;;8.50;;
3280;SDS011;1652;51.31805600;6.20194400;2024-03-25T09:49:02;11.70;;;5.90;;
3280;SDS011;1652;51.31805600;6.20194400;2024-03-25T09:51:30;13.10;;;7.70;;
3280;SDS011;1652;51.31805600;6.20194400;2024-03-25T09:53:57;9.20;;;6.60;;
3280;SDS011;1652;51.31805600;6.20194400;2024-03-25T09:56:23;14.93;;;7.30;;
3280;SDS011;1652;51.31805600;6.20194400;2024-03-25T09:58:48;15.33;;;8.10;;
3280;SDS011;1652;51.31805600;6.20194400;2024-03-25T10:01:15;11.10;;;6.90;;
3280;SDS011;1652;51.31805600;6.20194400;2024-03-25T10:03:41;11.17;;;5.73;;
3280;SDS011;1652;51.31805600;6.20194400;2024-03-25T10:06:07;9.53;;;5.70;;
3280;SDS011;1652;51.31805600;6.20194400;2024-03-25T10:08:35;11.50;;;4.53;;
3280;SDS011;1652;51.31805600;6.20194400;2024-03-25T10:11:01;8.90;;;5.30;;
3280;SDS011;1652;51.31805600;6.20194400;2024-03-25T10:13:27;7.00;;;5.43;;
3280;SDS011;1652;51.31805600;6.20194400;2024-03-25T10:15:54;10.50;;;5.93;;
3280;SDS011;1652;51.31805600;6.20194400;2024-03-25T10:18:20;10.50;;;6.53;;
3280;SDS011;1652;51.31805600;6.20194400;2024-03-25T10:20:52;10.37;;;6.10;;
3280;SDS011;1652;51.31805600;6.20194400;2024-03-25T10:23:25;11.80;;;6.53;;
3280;SDS011;1652;51.31805600;6.20194400;2024-03-25T10:25:54;9.13;;;5.63;;
3280;SDS011;1652;51.31805600;6.20194400;2024-03-25T10:28:20;11.43;;;5.50;;
3280;SDS011;1652;51.31805600;6.20194400;2024-03-25T10:30:46;15.40;;;5.97;;
3280;SDS011;1652;51.31805600;6.20194400;2024-03-25T10:33:12;10.47;;;5.37;;
3280;SDS011;1652;51.31805600;6.20194400;2024-03-25T10:35:38;15.83;;;5.30;;
3280;SDS011;1652;51.31805600;6.20194400;2024-03-25T10:38:09;10.73;;;4.50;;
3280;SDS011;1652;51.31805600;6.20194400;2024-03-25T10:40:39;13.13;;;5.80;;
3280;SDS011;1652;51.31805600;6.20194400;2024-03-25T10:43:07;6.83;;;5.40;;
3280;SDS011;1652;51.31805600;6.20194400;2024-03-25T10:45:34;9.90;;;5.60;;
3280;SDS011;1652;51.31805600;6.20194400;2024-03-25T10:48:24;7.33;;;5.23;;
3280;SDS011;1652;51.31805600;6.20194400;2024-03-25T10:50:51;9.43;;;4.80;;
3280;SDS011;1652;51.31805600;6.20194400;2024-03-25T10:53:20;11.63;;;5.47;;
3280;SDS011;1652;51.31805600;6.20194400;2024-03-25T10:55:50;12.17;;;5.10;;
3280;SDS011;1652;51.31805600;6.20194400;2024-03-25T10:58:18;10.47;;;6.47;;
3280;SDS011;1652;51.31805600;6.20194400;2024-03-25T11:00:48;6.77;;;5.00;;
3280;SDS011;1652;51.31805600;6.20194400;2024-03-25T11:03:14;9.40;;;4.73;;
3280;SDS011;1652;51.31805600;6.20194400;2024-03-25T11:05:40;8.40;;;4.87;;
3280;SDS011;1652;51.31805600;6.20194400;2024-03-25T11:08:13;12.40;;;4.73;;
3280;SDS011;1652;51.31805600;6.20194400;2024-03-25T11:10:43;8.83;;;4.83;;
3280;SDS011;1652;51.31805600;6.20194400;2024-03-25T11:13:11;5.17;;;3.20;;
3280;SDS011;1652;51.31805600;6.20194400;2024-03-25T11:15:40;6.90;;;3.83;;
3280;SDS011;1652;51.31805600;6.20194400;2024-03-25T11:18:18;4.83;;;3.30;;
3280;SDS011;1652;51.31805600;6.20194400;2024-03-25T11:21:00;11.40;;;3.40;;
3280;SDS011;1652;51.31805600;6.20194400;2024-03-25T11:23:26;5.57;;;4.00;;
3280;SDS011;1652;51.31805600;6.20194400;2024-03-25T11:25:54;8.73;;;3.97;;
3280;SDS011;1652;51.31805600;6.20194400;2024-03-25T11:28:28;8.37;;;3.97;;
3280;SDS011;1652;51.31805600;6.20194400;2024-03-25T11:30:55;12.03;;;4.13;;
3280;SDS011;1652;51.31805600;6.20194400;2024-03-25T11:33:21;10.57;;;3.70;;
3280;SDS011;1652;51.31805600;6.20194400;2024-03-25T11:35:50;6.43;;;3.50;;
3280;SDS011;1652;51.31805600;6.20194400;2024-03-25T11:38:16;7.00;;;3.67;;
3280;SDS011;1652;51.31805600;6.20194400;2024-03-25T11:40:43;4.33;;;3.73;;
3280;SDS011;1652;51.31805600;6.20194400;2024-03-25T11:43:10;3.93;;;3.47;;
3280;SDS011;1652;51.31805600;6.20194400;2024-03-25T11:45:46;6.20;;;4.30;;
3280;SDS011;1652;51.31805600;6.20194400;2024-03-25T11:48:13;5.13;;;3.63;;
3280;SDS011;1652;51.31805600;6.20194400;2024-03-25T11:50:46;9.20;;;5.40;;
3280;SDS011;1652;51.31805600;6.20194400;2024-03-25T11:53:14;7.23;;;4.50;;
3280;SDS011;1652;51.31805600;6.20194400;2024-03-25T11:55:40;8.77;;;4.80;;
3280;SDS011;1652;51.31805600;6.20194400;2024-03-25T11:58:10;4.87;;;4.00;;
3280;SDS011;1652;51.31805600;6.20194400;2024-03-25T12:00:42;4.07;;;3.67;;
3280;SDS011;1652;51.31805600;6.20194400;2024-03-25T12:03:14;5.60;;;3.50;;
3280;SDS011;1652;51.31805600;6.20194400;2024-03-25T12:05:41;5.83;;;4.13;;
3280;SDS011;1652;51.31805600;6.20194400;2024-03-25T12:08:10;9.73;;;4.10;;
3280;SDS011;1652;51.31805600;6.20194400;2024-03-25T12:10:37;4.90;;;3.90;;
3280;SDS011;1652;51.31805600;6.20194400;2024-03-25T12:13:22;5.47;;;3.63;;
3280;SDS011;1652;51.31805600;6.20194400;2024-03-25T12:15:53;7.80;;;3.57;;
3280;SDS011;1652;51.31805600;6.20194400;2024-03-25T12:18:19;4.43;;;2.93;;
3280;SDS011;1652;51.31805600;6.20194400;2024-03-25T12:20:46;6.63;;;3.27;;
3280;SDS011;1652;51.31805600;6.20194400;2024-03-25T12:23:12;2.50;;;2.40;;
3280;SDS011;1652;51.31805600;6.20194400;2024-03-25T12:25:38;3.87;;;3.00;;
3280;SDS011;1652;51.31805600;6.20194400;2024-03-25T12:28:10;7.00;;;3.63;;
3280;SDS011;1652;51.31805600;6.20194400;2024-03-25T12:30:40;3.30;;;2.80;;
3280;SDS011;1652;51.31805600;6.20194400;2024-03-25T12:33:15;3.20;;;2.60;;
3280;SDS011;1652;51.31805600;6.20194400;2024-03-25T12:35:41;3.97;;;3.13;;
3280;SDS011;1652;51.31805600;6.20194400;2024-03-25T12:38:09;3.40;;;2.80;;
3280;SDS011;1652;51.31805600;6.20194400;2024-03-25T12:40:35;3.60;;;2.80;;
3280;SDS011;1652;51.31805600;6.20194400;2024-03-25T12:43:01;5.73;;;2.73;;
3280;SDS011;1652;51.31805600;6.20194400;2024-03-25T12:45:27;2.73;;;1.93;;
3280;SDS011;1652;51.31805600;6.20194400;2024-03-25T12:47:53;3.40;;;3.10;;
3280;SDS011;1652;51.31805600;6.20194400;2024-03-25T12:50:19;3.90;;;3.00;;
3280;SDS011;1652;51.31805600;6.20194400;2024-03-25T12:52:49;3.30;;;2.20;;
3280;SDS011;1652;51.31805600;6.20194400;2024-03-25T12:55:14;3.27;;;2.40;;
3280;SDS011;1652;51.31805600;6.20194400;2024-03-25T12:57:40;2.80;;;2.60;;
3280;SDS011;1652;51.31805600;6.20194400;2024-03-25T13:00:07;3.93;;;2.67;;
3280;SDS011;1652;51.31805600;6.20194400;2024-03-25T13:02:33;3.40;;;2.33;;